Terminal Aerodrome Forecast
Issued by NWS

Home | Current Version | Previous Version | Text Only | Print | Product List | Glossary On
Versions: 1 2 3 4 5 6 7 8 9 10 11 12 13 14 15 16 17 18 19 20 21 22 23 24 25 26 27 28 29
000
FTUS43 KMKX 271739
TAFENW
TAF
KENW 271739Z 2718/2818 18009KT P6SM OVC015
      TEMPO 2718/2720 SCT015 OVC025
     FM272000 21009KT P6SM VCTS BKN035CB
     FM280400 VRB03KT 5SM BR SCT090
     FM281100 VRB03KT 1SM BR SCT015
     FM281500 03005KT P6SM SCT035=

USA.gov is the U.S. government's official web portal to all federal, state and local government web resources and services.